createdAt,value
2019-01-09T00:03:52.887Z,20.88
2019-01-09T00:08:56.351Z,20.85
2019-01-09T00:13:59.813Z,20.84
2019-01-09T00:19:03.283Z,20.84
2019-01-09T00:24:06.746Z,20.82
2019-01-09T00:29:10.215Z,20.82
2019-01-09T00:34:13.678Z,20.81
2019-01-09T00:39:17.139Z,20.81
2019-01-09T00:44:20.608Z,20.79
2019-01-09T00:49:24.075Z,20.77
2019-01-09T00:54:27.540Z,20.76
2019-01-09T00:59:31.002Z,20.76
2019-01-09T01:04:46.569Z,20.75
2019-01-09T01:10:14.254Z,20.75
2019-01-09T01:15:26.231Z,20.73
2019-01-09T01:20:49.338Z,20.72
2019-01-09T01:26:10.513Z,20.61
2019-01-09T01:31:34.592Z,20.71
2019-01-09T01:36:57.631Z,20.70
2019-01-09T01:42:23.715Z,20.69
2019-01-09T01:47:51.387Z,20.68
2019-01-09T01:53:12.283Z,20.67
2019-01-09T01:58:35.473Z,20.67
2019-01-09T02:04:04.585Z,20.66
2019-01-09T02:09:43.013Z,20.65
2019-01-09T02:15:19.297Z,20.65
2019-01-09T02:20:40.411Z,20.62
2019-01-09T02:26:02.124Z,20.62
2019-01-09T02:31:20.433Z,20.62
2019-01-09T02:36:23.898Z,20.62
2019-01-09T02:41:27.361Z,20.60
2019-01-09T02:46:30.833Z,20.60
2019-01-09T02:51:34.298Z,20.60
2019-01-09T02:56:37.761Z,20.60
2019-01-09T03:01:41.231Z,20.58
2019-01-09T03:06:44.689Z,20.59
2019-01-09T03:11:48.157Z,20.58
2019-01-09T03:16:51.626Z,20.57
2019-01-09T03:21:55.093Z,20.58
2019-01-09T03:26:58.560Z,20.59
2019-01-09T03:32:02.052Z,20.60
2019-01-09T03:37:05.501Z,20.60
2019-01-09T03:42:08.963Z,20.60
2019-01-09T03:47:12.426Z,20.60
2019-01-09T03:52:15.893Z,20.60
2019-01-09T03:57:19.357Z,20.62
2019-01-09T04:02:22.817Z,20.62
2019-01-09T04:07:26.277Z,20.62
2019-01-09T04:12:29.743Z,20.60
2019-01-09T04:17:33.208Z,20.60
2019-01-09T04:22:36.677Z,20.61
2019-01-09T04:27:40.144Z,20.61
2019-01-09T04:32:43.605Z,20.60
2019-01-09T04:37:47.071Z,20.62
2019-01-09T04:42:50.535Z,20.63
2019-01-09T04:47:54.001Z,20.65
2019-01-09T04:52:57.464Z,20.70
2019-01-09T04:58:00.927Z,20.70
2019-01-09T05:03:04.400Z,20.70
2019-01-09T05:08:07.861Z,20.70
2019-01-09T05:13:11.325Z,20.71
2019-01-09T05:18:14.788Z,20.71
2019-01-09T05:23:18.260Z,20.73
2019-01-09T05:28:21.723Z,20.74
2019-01-09T05:33:25.192Z,20.75
2019-01-09T05:38:28.654Z,20.72
2019-01-09T05:43:32.113Z,20.72
2019-01-09T05:48:35.577Z,20.71
2019-01-09T05:53:39.041Z,20.70
2019-01-09T05:58:42.498Z,20.71
2019-01-09T06:03:45.972Z,20.70
2019-01-09T06:08:49.443Z,20.71
2019-01-09T06:13:52.908Z,20.73
2019-01-09T06:18:56.379Z,20.73
2019-01-09T06:23:59.844Z,20.72
2019-01-09T06:29:03.315Z,20.71
2019-01-09T06:34:06.789Z,20.70
2019-01-09T06:39:10.256Z,20.70
2019-01-09T06:44:13.720Z,20.68
2019-01-09T06:49:17.184Z,20.67
2019-01-09T06:54:20.670Z,20.66
2019-01-09T06:59:24.116Z,20.68
2019-01-09T07:04:27.585Z,20.67
2019-01-09T07:09:31.045Z,20.69
2019-01-09T07:14:34.512Z,20.69
2019-01-09T07:19:37.978Z,20.68
2019-01-09T07:24:41.441Z,20.67
2019-01-09T07:29:44.907Z,20.66
2019-01-09T07:34:48.369Z,20.65
2019-01-09T07:39:51.837Z,20.62
2019-01-09T07:44:55.298Z,20.64
2019-01-09T07:49:58.779Z,20.65
2019-01-09T07:55:02.240Z,20.63
2019-01-09T08:00:08.838Z,19.60
2019-01-09T08:05:12.303Z,18.51
2019-01-09T08:10:15.767Z,17.66
2019-01-09T08:15:19.232Z,18.37
2019-01-09T08:20:22.703Z,18.75
2019-01-09T08:25:26.167Z,18.96
2019-01-09T08:30:29.641Z,19.13
2019-01-09T08:35:33.102Z,19.26
2019-01-09T08:40:36.645Z,19.38
2019-01-09T08:45:40.111Z,19.49
2019-01-09T08:50:43.640Z,19.57
2019-01-09T08:55:47.101Z,19.66
2019-01-09T09:00:50.573Z,19.72
2019-01-09T09:05:54.031Z,19.79
2019-01-09T09:10:57.497Z,19.86
2019-01-09T09:16:00.999Z,19.89
2019-01-09T09:21:04.689Z,19.95
2019-01-09T09:26:08.160Z,19.98
2019-01-09T09:31:11.626Z,20.03
2019-01-09T09:36:15.091Z,20.07
2019-01-09T09:41:18.555Z,20.11
2019-01-09T09:46:22.013Z,20.15
2019-01-09T09:51:25.489Z,20.18
2019-01-09T09:56:28.948Z,20.20
2019-01-09T10:01:32.415Z,20.23
2019-01-09T10:06:35.878Z,20.26
2019-01-09T10:11:39.343Z,20.29
2019-01-09T10:16:42.806Z,20.31
2019-01-09T10:21:46.271Z,20.32
2019-01-09T10:26:49.730Z,20.34
2019-01-09T10:31:53.194Z,20.36
2019-01-09T10:36:56.653Z,20.38
2019-01-09T10:42:00.120Z,20.38
2019-01-09T10:47:03.581Z,20.37
2019-01-09T10:52:07.063Z,20.38
2019-01-09T10:57:10.637Z,20.39
2019-01-09T11:02:14.111Z,20.42
2019-01-09T11:07:17.591Z,20.45
2019-01-09T11:12:21.049Z,20.50
2019-01-09T11:17:24.530Z,20.53
2019-01-09T11:22:28.018Z,20.55
2019-01-09T11:27:31.504Z,20.59
2019-01-09T11:32:35.018Z,20.62
2019-01-09T11:37:38.494Z,20.63
2019-01-09T11:42:41.973Z,20.63
2019-01-09T11:47:45.524Z,20.65
2019-01-09T11:52:49.009Z,20.67
2019-01-09T11:57:52.487Z,20.67
2019-01-09T12:02:56.821Z,20.69
2019-01-09T12:08:00.293Z,20.71
2019-01-09T12:13:03.776Z,20.72
2019-01-09T12:18:07.258Z,20.72
2019-01-09T12:23:10.738Z,20.73
2019-01-09T12:28:14.221Z,20.74
2019-01-09T12:33:17.700Z,20.75
2019-01-09T12:38:21.173Z,20.75
2019-01-09T12:43:24.649Z,20.76
2019-01-09T12:48:28.218Z,20.77
2019-01-09T12:53:33.970Z,20.77
2019-01-09T12:58:36.905Z,20.78
2019-01-09T13:03:40.389Z,20.80
2019-01-09T13:08:43.872Z,20.81
2019-01-09T13:13:47.354Z,20.81
2019-01-09T13:18:50.835Z,20.79
2019-01-09T13:23:54.309Z,19.97
2019-01-09T13:28:57.795Z,19.25
2019-01-09T13:34:01.274Z,18.68
2019-01-09T13:39:07.064Z,19.10
2019-01-09T13:44:10.619Z,19.37
2019-01-09T13:49:14.106Z,19.52
2019-01-09T13:54:17.582Z,19.64
2019-01-09T13:59:21.069Z,19.76
2019-01-09T14:04:24.543Z,19.87
2019-01-09T14:09:28.028Z,19.94
2019-01-09T14:14:31.521Z,20.00
2019-01-09T14:19:34.987Z,20.07
2019-01-09T14:24:38.474Z,20.12
2019-01-09T14:29:41.954Z,20.15
2019-01-09T14:34:45.433Z,20.18
2019-01-09T14:39:48.914Z,20.23
2019-01-09T14:44:52.404Z,20.26
2019-01-09T14:49:55.887Z,20.30
2019-01-09T14:54:59.367Z,20.32
2019-01-09T15:00:03.207Z,20.35
2019-01-09T15:05:08.060Z,20.37
2019-01-09T15:10:14.559Z,20.39
2019-01-09T15:15:18.709Z,20.41
2019-01-09T15:20:22.427Z,20.41
2019-01-09T15:25:25.891Z,20.42
2019-01-09T15:30:30.325Z,20.42
2019-01-09T15:35:33.795Z,20.43
2019-01-09T15:40:37.253Z,20.44
2019-01-09T15:45:40.718Z,20.43
2019-01-09T15:50:44.217Z,20.43
2019-01-09T15:55:47.649Z,20.46
2019-01-09T16:00:51.179Z,20.47
2019-01-09T16:05:54.809Z,20.48
2019-01-09T16:10:58.284Z,20.48
2019-01-09T16:16:01.739Z,20.49
2019-01-09T16:21:05.280Z,20.48
2019-01-09T16:26:08.746Z,20.48
2019-01-09T16:31:14.862Z,20.47
2019-01-09T16:36:18.340Z,20.49
2019-01-09T16:41:21.826Z,20.50
2019-01-09T16:46:25.297Z,20.53
2019-01-09T16:51:28.782Z,20.56
2019-01-09T16:56:32.269Z,20.57
2019-01-09T17:01:35.758Z,20.60
2019-01-09T17:06:39.239Z,20.63
2019-01-09T17:11:42.701Z,20.64
2019-01-09T17:16:46.167Z,20.65
2019-01-09T17:21:49.639Z,20.67
2019-01-09T17:26:53.101Z,20.67
2019-01-09T17:31:56.738Z,20.66
2019-01-09T17:37:00.204Z,20.63
2019-01-09T17:42:03.946Z,20.64
2019-01-09T17:47:07.412Z,20.65
2019-01-09T17:52:11.152Z,20.67
2019-01-09T17:57:14.613Z,20.67
2019-01-09T18:02:18.079Z,20.67
2019-01-09T18:07:21.544Z,20.65
2019-01-09T18:12:25.021Z,20.67
2019-01-09T18:17:28.487Z,20.67
2019-01-09T18:22:31.954Z,20.67
2019-01-09T18:27:35.423Z,20.68
2019-01-09T18:32:38.952Z,20.68
2019-01-09T18:37:54.773Z,20.68
2019-01-09T18:43:17.941Z,20.68
2019-01-09T18:48:24.453Z,20.69
2019-01-09T18:53:28.459Z,20.71
2019-01-09T18:58:31.931Z,20.70
2019-01-09T19:03:35.393Z,20.70
2019-01-09T19:08:39.005Z,20.70
2019-01-09T19:13:42.466Z,20.70
2019-01-09T19:18:45.935Z,20.70
2019-01-09T19:23:49.403Z,20.70
2019-01-09T19:28:52.940Z,20.71
2019-01-09T19:33:56.405Z,20.69
2019-01-09T19:39:00.055Z,20.69
2019-01-09T19:44:03.515Z,20.70
2019-01-09T19:49:07.049Z,20.70
2019-01-09T19:54:10.510Z,20.72
2019-01-09T19:59:13.980Z,20.72
2019-01-09T20:04:17.448Z,20.72
2019-01-09T20:09:20.914Z,20.70
2019-01-09T20:14:24.397Z,20.71
2019-01-09T20:19:27.892Z,20.70
2019-01-09T20:24:31.365Z,20.69
2019-01-09T20:29:34.792Z,20.69
2019-01-09T20:34:38.328Z,20.68
2019-01-09T20:39:41.856Z,20.69
2019-01-09T20:44:45.285Z,20.68
2019-01-09T20:49:48.759Z,20.67
2019-01-09T20:54:52.476Z,20.67
2019-01-09T20:59:55.935Z,20.68
2019-01-09T21:04:59.570Z,20.68
2019-01-09T21:10:03.378Z,20.68
2019-01-09T21:15:09.897Z,20.69
2019-01-09T21:20:16.448Z,20.68
2019-01-09T21:25:20.348Z,20.68
2019-01-09T21:30:25.971Z,20.69
2019-01-09T21:35:29.434Z,20.69
2019-01-09T21:40:33.942Z,20.68
2019-01-09T21:45:37.410Z,20.69
2019-01-09T21:50:41.110Z,20.69
2019-01-09T21:55:44.574Z,20.69
2019-01-09T22:00:48.054Z,20.67
2019-01-09T22:05:51.981Z,20.68
2019-01-09T22:10:55.443Z,20.67
2019-01-09T22:15:58.915Z,20.67
2019-01-09T22:21:02.380Z,20.67
2019-01-09T22:26:06.078Z,20.67
2019-01-09T22:31:11.019Z,20.67
2019-01-09T22:36:14.492Z,20.67
2019-01-09T22:41:18.125Z,20.68
2019-01-09T22:46:21.695Z,20.68
2019-01-09T22:51:25.174Z,20.67
2019-01-09T22:56:28.634Z,20.68
2019-01-09T23:01:32.374Z,20.67
2019-01-09T23:06:35.834Z,20.66
2019-01-09T23:11:40.671Z,20.65
2019-01-09T23:16:44.131Z,20.65
2019-01-09T23:21:47.921Z,20.63
2019-01-09T23:26:51.409Z,20.63
2019-01-09T23:31:54.881Z,20.64
2019-01-09T23:36:58.344Z,20.65
2019-01-09T23:42:01.821Z,20.64
2019-01-09T23:47:05.286Z,20.64
2019-01-09T23:52:08.757Z,20.64
2019-01-09T23:57:12.228Z,20.63
